sensor_id;sensor_type;location;lat;lon;timestamp;temperature;humidity
34768;DHT22;21755;43.608;1.236;2023-01-28T00:00:04;3.10;99.90
34768;DHT22;21755;43.608;1.236;2023-01-28T00:02:32;3.10;99.90
34768;DHT22;21755;43.608;1.236;2023-01-28T00:04:58;3.10;99.90
34768;DHT22;21755;43.608;1.236;2023-01-28T00:07:24;3.00;99.90
34768;DHT22;21755;43.608;1.236;2023-01-28T00:09:50;3.00;99.90
34768;DHT22;21755;43.608;1.236;2023-01-28T00:12:16;3.00;99.90
34768;DHT22;21755;43.608;1.236;2023-01-28T00:14:42;3.00;99.90
34768;DHT22;21755;43.608;1.236;2023-01-28T00:17:08;3.00;99.90
34768;DHT22;21755;43.608;1.236;2023-01-28T00:19:34;3.00;99.90
34768;DHT22;21755;43.608;1.236;2023-01-28T00:21:59;3.00;99.90
34768;DHT22;21755;43.608;1.236;2023-01-28T00:24:26;3.00;99.90
34768;DHT22;21755;43.608;1.236;2023-01-28T00:26:52;3.00;99.90
34768;DHT22;21755;43.608;1.236;2023-01-28T00:29:18;3.00;99.90
34768;DHT22;21755;43.608;1.236;2023-01-28T00:31:43;3.00;99.90
34768;DHT22;21755;43.608;1.236;2023-01-28T00:34:09;3.00;99.90
34768;DHT22;21755;43.608;1.236;2023-01-28T00:36:35;2.90;99.90
34768;DHT22;21755;43.608;1.236;2023-01-28T00:39:04;3.00;99.90
34768;DHT22;21755;43.608;1.236;2023-01-28T00:41:30;3.00;99.90
34768;DHT22;21755;43.608;1.236;2023-01-28T00:43:57;3.00;99.90
34768;DHT22;21755;43.608;1.236;2023-01-28T00:46:23;3.00;99.90
34768;DHT22;21755;43.608;1.236;2023-01-28T00:48:52;3.00;99.90
34768;DHT22;21755;43.608;1.236;2023-01-28T00:51:19;3.00;99.90
34768;DHT22;21755;43.608;1.236;2023-01-28T00:53:46;3.00;99.90
34768;DHT22;21755;43.608;1.236;2023-01-28T00:56:14;3.00;99.90
34768;DHT22;21755;43.608;1.236;2023-01-28T00:58:40;3.00;99.90
34768;DHT22;21755;43.608;1.236;2023-01-28T01:01:11;3.00;99.90
34768;DHT22;21755;43.608;1.236;2023-01-28T01:03:38;3.00;99.90
34768;DHT22;21755;43.608;1.236;2023-01-28T01:06:04;2.90;99.90
34768;DHT22;21755;43.608;1.236;2023-01-28T01:08:30;3.00;99.90
34768;DHT22;21755;43.608;1.236;2023-01-28T01:11:03;3.00;99.90
34768;DHT22;21755;43.608;1.236;2023-01-28T01:13:30;3.00;99.90
34768;DHT22;21755;43.608;1.236;2023-01-28T01:16:15;3.00;99.90
34768;DHT22;21755;43.608;1.236;2023-01-28T01:18:42;2.90;99.90
34768;DHT22;21755;43.608;1.236;2023-01-28T01:21:14;3.00;99.90
34768;DHT22;21755;43.608;1.236;2023-01-28T01:23:40;3.00;99.90
34768;DHT22;21755;43.608;1.236;2023-01-28T01:26:06;3.00;99.90
34768;DHT22;21755;43.608;1.236;2023-01-28T01:28:32;3.00;99.90
34768;DHT22;21755;43.608;1.236;2023-01-28T01:31:02;3.00;99.90
34768;DHT22;21755;43.608;1.236;2023-01-28T01:33:29;2.90;99.90
34768;DHT22;21755;43.608;1.236;2023-01-28T01:35:56;3.00;99.90
34768;DHT22;21755;43.608;1.236;2023-01-28T01:38:22;3.00;99.90
34768;DHT22;21755;43.608;1.236;2023-01-28T01:40:48;3.00;99.90
34768;DHT22;21755;43.608;1.236;2023-01-28T01:43:20;3.00;99.90
34768;DHT22;21755;43.608;1.236;2023-01-28T01:45:58;3.00;99.90
34768;DHT22;21755;43.608;1.236;2023-01-28T01:48:31;3.00;99.90
34768;DHT22;21755;43.608;1.236;2023-01-28T01:51:02;3.00;99.90
34768;DHT22;21755;43.608;1.236;2023-01-28T01:53:30;3.00;99.90
34768;DHT22;21755;43.608;1.236;2023-01-28T01:56:01;3.00;99.90
34768;DHT22;21755;43.608;1.236;2023-01-28T01:58:32;3.00;99.90
34768;DHT22;21755;43.608;1.236;2023-01-28T02:01:01;3.00;99.90
34768;DHT22;21755;43.608;1.236;2023-01-28T02:06:30;3.00;99.90
34768;DHT22;21755;43.608;1.236;2023-01-28T02:08:57;3.00;99.90
34768;DHT22;21755;43.608;1.236;2023-01-28T02:11:29;3.00;99.90
34768;DHT22;21755;43.608;1.236;2023-01-28T02:13:57;3.00;99.90
34768;DHT22;21755;43.608;1.236;2023-01-28T02:16:26;3.00;99.90
34768;DHT22;21755;43.608;1.236;2023-01-28T02:18:52;3.10;99.90
34768;DHT22;21755;43.608;1.236;2023-01-28T02:24:18;3.00;99.90
34768;DHT22;21755;43.608;1.236;2023-01-28T02:33:07;3.00;99.90
34768;DHT22;21755;43.608;1.236;2023-01-28T02:35:34;3.00;99.90
34768;DHT22;21755;43.608;1.236;2023-01-28T02:38:11;3.00;99.90
34768;DHT22;21755;43.608;1.236;2023-01-28T02:40:44;3.00;99.90
34768;DHT22;21755;43.608;1.236;2023-01-28T02:43:38;3.00;99.90
34768;DHT22;21755;43.608;1.236;2023-01-28T02:49:18;3.00;99.90
34768;DHT22;21755;43.608;1.236;2023-01-28T02:51:58;3.00;99.90
34768;DHT22;21755;43.608;1.236;2023-01-28T02:56:59;3.00;99.90
34768;DHT22;21755;43.608;1.236;2023-01-28T02:59:32;3.00;99.90
34768;DHT22;21755;43.608;1.236;2023-01-28T03:02:31;3.00;99.90
34768;DHT22;21755;43.608;1.236;2023-01-28T03:07:45;3.00;99.90
34768;DHT22;21755;43.608;1.236;2023-01-28T03:10:15;3.00;99.90
34768;DHT22;21755;43.608;1.236;2023-01-28T03:12:43;3.00;99.90
34768;DHT22;21755;43.608;1.236;2023-01-28T03:15:34;3.00;99.90
34768;DHT22;21755;43.608;1.236;2023-01-28T03:21:34;3.00;99.90
34768;DHT22;21755;43.608;1.236;2023-01-28T03:24:27;3.00;99.90
34768;DHT22;21755;43.608;1.236;2023-01-28T03:30:05;3.00;99.90
34768;DHT22;21755;43.608;1.236;2023-01-28T03:32:51;3.00;99.90
34768;DHT22;21755;43.608;1.236;2023-01-28T03:35:36;3.00;99.90
34768;DHT22;21755;43.608;1.236;2023-01-28T03:38:20;3.00;99.90
34768;DHT22;21755;43.608;1.236;2023-01-28T03:41:07;3.00;99.90
34768;DHT22;21755;43.608;1.236;2023-01-28T03:43:33;3.00;99.90
34768;DHT22;21755;43.608;1.236;2023-01-28T03:46:00;2.90;99.90
34768;DHT22;21755;43.608;1.236;2023-01-28T03:48:27;2.90;99.90
34768;DHT22;21755;43.608;1.236;2023-01-28T03:50:57;2.90;99.90
34768;DHT22;21755;43.608;1.236;2023-01-28T03:53:25;2.90;99.90
34768;DHT22;21755;43.608;1.236;2023-01-28T03:55:52;2.90;99.90
34768;DHT22;21755;43.608;1.236;2023-01-28T03:58:18;3.00;99.90
34768;DHT22;21755;43.608;1.236;2023-01-28T04:00:45;2.90;99.90
34768;DHT22;21755;43.608;1.236;2023-01-28T04:03:14;2.90;99.90
34768;DHT22;21755;43.608;1.236;2023-01-28T04:05:59;2.90;99.90
34768;DHT22;21755;43.608;1.236;2023-01-28T04:08:25;2.90;99.90
34768;DHT22;21755;43.608;1.236;2023-01-28T04:10:51;2.90;99.90
34768;DHT22;21755;43.608;1.236;2023-01-28T04:13:17;2.90;99.90
34768;DHT22;21755;43.608;1.236;2023-01-28T04:15:43;2.90;99.90
34768;DHT22;21755;43.608;1.236;2023-01-28T04:18:10;2.90;99.90
34768;DHT22;21755;43.608;1.236;2023-01-28T04:20:36;2.90;99.90
34768;DHT22;21755;43.608;1.236;2023-01-28T04:23:03;2.90;99.90
34768;DHT22;21755;43.608;1.236;2023-01-28T04:25:30;2.90;99.90
34768;DHT22;21755;43.608;1.236;2023-01-28T04:27:55;2.90;99.90
34768;DHT22;21755;43.608;1.236;2023-01-28T04:30:21;2.90;99.90
34768;DHT22;21755;43.608;1.236;2023-01-28T04:32:48;2.90;99.90
34768;DHT22;21755;43.608;1.236;2023-01-28T04:35:17;2.90;99.90
34768;DHT22;21755;43.608;1.236;2023-01-28T04:37:44;2.90;99.90
34768;DHT22;21755;43.608;1.236;2023-01-28T04:40:11;2.90;99.90
34768;DHT22;21755;43.608;1.236;2023-01-28T04:42:37;2.90;99.90
34768;DHT22;21755;43.608;1.236;2023-01-28T04:45:03;2.90;99.90
34768;DHT22;21755;43.608;1.236;2023-01-28T04:47:29;2.90;99.90
34768;DHT22;21755;43.608;1.236;2023-01-28T04:49:55;2.90;99.90
34768;DHT22;21755;43.608;1.236;2023-01-28T04:52:21;2.90;99.90
34768;DHT22;21755;43.608;1.236;2023-01-28T04:54:47;2.90;99.90
34768;DHT22;21755;43.608;1.236;2023-01-28T04:57:13;2.90;99.90
34768;DHT22;21755;43.608;1.236;2023-01-28T04:59:40;2.90;99.90
34768;DHT22;21755;43.608;1.236;2023-01-28T05:02:06;2.90;99.90
34768;DHT22;21755;43.608;1.236;2023-01-28T05:04:32;2.90;99.90
34768;DHT22;21755;43.608;1.236;2023-01-28T05:06:57;2.90;99.90
34768;DHT22;21755;43.608;1.236;2023-01-28T05:09:23;2.90;99.90
34768;DHT22;21755;43.608;1.236;2023-01-28T05:11:49;2.80;99.90
34768;DHT22;21755;43.608;1.236;2023-01-28T05:14:15;2.90;99.90
34768;DHT22;21755;43.608;1.236;2023-01-28T05:16:41;2.90;99.90
34768;DHT22;21755;43.608;1.236;2023-01-28T05:19:07;2.80;99.90
34768;DHT22;21755;43.608;1.236;2023-01-28T05:21:33;2.90;99.90
34768;DHT22;21755;43.608;1.236;2023-01-28T05:23:58;2.80;99.90
34768;DHT22;21755;43.608;1.236;2023-01-28T05:26:24;2.90;99.90
34768;DHT22;21755;43.608;1.236;2023-01-28T05:28:50;2.90;99.90
34768;DHT22;21755;43.608;1.236;2023-01-28T05:31:16;2.80;99.90
34768;DHT22;21755;43.608;1.236;2023-01-28T05:33:42;2.80;99.90
34768;DHT22;21755;43.608;1.236;2023-01-28T05:36:08;2.80;99.90
34768;DHT22;21755;43.608;1.236;2023-01-28T05:38:34;2.80;99.90
34768;DHT22;21755;43.608;1.236;2023-01-28T05:41:00;2.80;99.90
34768;DHT22;21755;43.608;1.236;2023-01-28T05:43:25;2.80;99.90
34768;DHT22;21755;43.608;1.236;2023-01-28T05:45:51;2.80;99.90
34768;DHT22;21755;43.608;1.236;2023-01-28T05:48:17;2.80;99.90
34768;DHT22;21755;43.608;1.236;2023-01-28T05:50:46;2.80;99.90
34768;DHT22;21755;43.608;1.236;2023-01-28T05:53:11;2.80;99.90
34768;DHT22;21755;43.608;1.236;2023-01-28T05:55:37;2.80;99.90
34768;DHT22;21755;43.608;1.236;2023-01-28T05:58:03;2.80;99.90
34768;DHT22;21755;43.608;1.236;2023-01-28T06:00:29;2.80;99.90
34768;DHT22;21755;43.608;1.236;2023-01-28T06:02:55;2.80;99.90
34768;DHT22;21755;43.608;1.236;2023-01-28T06:05:21;2.80;99.90
34768;DHT22;21755;43.608;1.236;2023-01-28T06:07:47;2.80;99.90
34768;DHT22;21755;43.608;1.236;2023-01-28T06:10:14;2.80;99.90
34768;DHT22;21755;43.608;1.236;2023-01-28T06:12:42;2.80;99.90
34768;DHT22;21755;43.608;1.236;2023-01-28T06:15:09;2.80;99.90
34768;DHT22;21755;43.608;1.236;2023-01-28T06:17:35;2.80;99.90
34768;DHT22;21755;43.608;1.236;2023-01-28T06:20:02;2.80;99.90
34768;DHT22;21755;43.608;1.236;2023-01-28T06:22:28;2.80;99.90
34768;DHT22;21755;43.608;1.236;2023-01-28T06:24:53;2.80;99.90
34768;DHT22;21755;43.608;1.236;2023-01-28T06:27:19;2.80;99.90
34768;DHT22;21755;43.608;1.236;2023-01-28T06:29:45;2.80;99.90
34768;DHT22;21755;43.608;1.236;2023-01-28T06:32:11;2.80;99.90
34768;DHT22;21755;43.608;1.236;2023-01-28T06:34:37;2.80;99.90
34768;DHT22;21755;43.608;1.236;2023-01-28T06:37:03;2.80;99.90
34768;DHT22;21755;43.608;1.236;2023-01-28T06:39:30;2.80;99.90
34768;DHT22;21755;43.608;1.236;2023-01-28T06:41:59;2.80;99.90
34768;DHT22;21755;43.608;1.236;2023-01-28T06:44:25;2.80;99.90
34768;DHT22;21755;43.608;1.236;2023-01-28T06:46:51;2.70;99.90
34768;DHT22;21755;43.608;1.236;2023-01-28T06:49:17;2.80;99.90
34768;DHT22;21755;43.608;1.236;2023-01-28T06:51:43;2.80;99.90
34768;DHT22;21755;43.608;1.236;2023-01-28T06:54:08;2.70;99.90
34768;DHT22;21755;43.608;1.236;2023-01-28T06:56:34;2.70;99.90
34768;DHT22;21755;43.608;1.236;2023-01-28T06:59:00;2.70;99.90
34768;DHT22;21755;43.608;1.236;2023-01-28T07:01:26;2.80;99.90
34768;DHT22;21755;43.608;1.236;2023-01-28T07:03:52;2.70;99.90
34768;DHT22;21755;43.608;1.236;2023-01-28T07:06:18;2.70;99.90
34768;DHT22;21755;43.608;1.236;2023-01-28T07:08:43;2.70;99.90
34768;DHT22;21755;43.608;1.236;2023-01-28T07:11:09;2.70;99.90
34768;DHT22;21755;43.608;1.236;2023-01-28T07:13:35;2.70;99.90
34768;DHT22;21755;43.608;1.236;2023-01-28T07:16:01;2.70;99.90
34768;DHT22;21755;43.608;1.236;2023-01-28T07:18:28;2.70;99.90
34768;DHT22;21755;43.608;1.236;2023-01-28T07:20:54;2.70;99.90
34768;DHT22;21755;43.608;1.236;2023-01-28T07:23:21;2.70;99.90
34768;DHT22;21755;43.608;1.236;2023-01-28T07:25:47;2.70;99.90
34768;DHT22;21755;43.608;1.236;2023-01-28T07:28:13;2.70;99.90
34768;DHT22;21755;43.608;1.236;2023-01-28T07:30:41;2.70;99.90
34768;DHT22;21755;43.608;1.236;2023-01-28T07:33:07;2.70;99.90
34768;DHT22;21755;43.608;1.236;2023-01-28T07:35:32;2.70;99.90
34768;DHT22;21755;43.608;1.236;2023-01-28T07:38:00;2.70;99.90
34768;DHT22;21755;43.608;1.236;2023-01-28T07:40:27;2.70;99.90
34768;DHT22;21755;43.608;1.236;2023-01-28T07:42:53;2.70;99.90
34768;DHT22;21755;43.608;1.236;2023-01-28T07:45:21;2.70;99.90
34768;DHT22;21755;43.608;1.236;2023-01-28T07:47:55;2.70;99.90
34768;DHT22;21755;43.608;1.236;2023-01-28T07:50:21;2.70;99.90
34768;DHT22;21755;43.608;1.236;2023-01-28T07:52:47;2.70;99.90
34768;DHT22;21755;43.608;1.236;2023-01-28T07:55:13;2.70;99.90
34768;DHT22;21755;43.608;1.236;2023-01-28T07:58:00;2.70;99.90
34768;DHT22;21755;43.608;1.236;2023-01-28T08:00:29;2.70;99.90
34768;DHT22;21755;43.608;1.236;2023-01-28T08:02:59;2.70;99.90
34768;DHT22;21755;43.608;1.236;2023-01-28T08:05:31;2.70;99.90
34768;DHT22;21755;43.608;1.236;2023-01-28T08:08:01;2.70;99.90
34768;DHT22;21755;43.608;1.236;2023-01-28T08:10:27;2.70;99.90
34768;DHT22;21755;43.608;1.236;2023-01-28T08:12:56;2.70;99.90
34768;DHT22;21755;43.608;1.236;2023-01-28T08:15:27;2.70;99.90
34768;DHT22;21755;43.608;1.236;2023-01-28T08:17:54;2.70;99.90
34768;DHT22;21755;43.608;1.236;2023-01-28T08:20:20;2.80;99.90
34768;DHT22;21755;43.608;1.236;2023-01-28T08:22:46;2.70;99.90
34768;DHT22;21755;43.608;1.236;2023-01-28T08:25:12;2.70;99.90
34768;DHT22;21755;43.608;1.236;2023-01-28T08:27:38;2.80;99.90
34768;DHT22;21755;43.608;1.236;2023-01-28T08:30:05;2.80;99.90
34768;DHT22;21755;43.608;1.236;2023-01-28T08:32:31;2.80;99.90
34768;DHT22;21755;43.608;1.236;2023-01-28T08:34:58;2.80;99.90
34768;DHT22;21755;43.608;1.236;2023-01-28T08:37:24;2.80;99.90
34768;DHT22;21755;43.608;1.236;2023-01-28T08:39:49;2.80;99.90
34768;DHT22;21755;43.608;1.236;2023-01-28T08:42:15;2.80;99.90
34768;DHT22;21755;43.608;1.236;2023-01-28T08:44:41;2.80;99.90
34768;DHT22;21755;43.608;1.236;2023-01-28T08:47:07;2.80;99.90
34768;DHT22;21755;43.608;1.236;2023-01-28T08:49:33;2.80;99.90
34768;DHT22;21755;43.608;1.236;2023-01-28T08:51:59;2.80;99.90
34768;DHT22;21755;43.608;1.236;2023-01-28T08:54:25;2.80;99.90
34768;DHT22;21755;43.608;1.236;2023-01-28T08:56:50;2.90;99.90
34768;DHT22;21755;43.608;1.236;2023-01-28T08:59:17;2.80;99.90
34768;DHT22;21755;43.608;1.236;2023-01-28T09:01:43;2.90;99.90
34768;DHT22;21755;43.608;1.236;2023-01-28T09:04:09;2.80;99.90
34768;DHT22;21755;43.608;1.236;2023-01-28T09:06:35;2.90;99.90
34768;DHT22;21755;43.608;1.236;2023-01-28T09:09:01;2.90;99.90
34768;DHT22;21755;43.608;1.236;2023-01-28T09:11:28;2.90;99.90
34768;DHT22;21755;43.608;1.236;2023-01-28T09:13:56;2.90;99.90
34768;DHT22;21755;43.608;1.236;2023-01-28T09:16:22;2.90;99.90
34768;DHT22;21755;43.608;1.236;2023-01-28T09:18:48;2.90;99.90
34768;DHT22;21755;43.608;1.236;2023-01-28T09:21:16;2.90;99.90
34768;DHT22;21755;43.608;1.236;2023-01-28T09:23:42;2.90;99.90
34768;DHT22;21755;43.608;1.236;2023-01-28T09:26:09;2.90;99.90
34768;DHT22;21755;43.608;1.236;2023-01-28T09:28:35;2.90;99.90
34768;DHT22;21755;43.608;1.236;2023-01-28T09:31:04;2.90;99.90
34768;DHT22;21755;43.608;1.236;2023-01-28T09:33:31;2.90;99.90
34768;DHT22;21755;43.608;1.236;2023-01-28T09:36:01;3.00;99.90
34768;DHT22;21755;43.608;1.236;2023-01-28T09:38:29;3.00;99.90
34768;DHT22;21755;43.608;1.236;2023-01-28T09:40:55;3.00;99.90
34768;DHT22;21755;43.608;1.236;2023-01-28T09:46:03;3.10;99.90
34768;DHT22;21755;43.608;1.236;2023-01-28T09:48:40;3.10;99.90
34768;DHT22;21755;43.608;1.236;2023-01-28T09:51:12;3.10;99.90
34768;DHT22;21755;43.608;1.236;2023-01-28T09:53:44;3.10;99.90
34768;DHT22;21755;43.608;1.236;2023-01-28T09:56:21;3.10;99.90
34768;DHT22;21755;43.608;1.236;2023-01-28T09:58:50;3.10;99.90
34768;DHT22;21755;43.608;1.236;2023-01-28T10:04:14;3.20;99.90
34768;DHT22;21755;43.608;1.236;2023-01-28T10:12:55;3.20;99.90
34768;DHT22;21755;43.608;1.236;2023-01-28T10:18:00;3.30;99.90
34768;DHT22;21755;43.608;1.236;2023-01-28T10:20:50;3.30;99.90
34768;DHT22;21755;43.608;1.236;2023-01-28T10:23:56;3.40;99.90
34768;DHT22;21755;43.608;1.236;2023-01-28T10:26:30;3.40;99.90
34768;DHT22;21755;43.608;1.236;2023-01-28T10:29:03;3.40;99.90
34768;DHT22;21755;43.608;1.236;2023-01-28T10:31:31;3.40;99.90
34768;DHT22;21755;43.608;1.236;2023-01-28T10:33:58;3.40;99.90
34768;DHT22;21755;43.608;1.236;2023-01-28T10:36:24;3.40;99.90
34768;DHT22;21755;43.608;1.236;2023-01-28T10:38:51;3.40;99.90
34768;DHT22;21755;43.608;1.236;2023-01-28T10:41:20;3.40;99.90
34768;DHT22;21755;43.608;1.236;2023-01-28T10:43:47;3.40;99.90
34768;DHT22;21755;43.608;1.236;2023-01-28T10:46:25;3.40;99.90
34768;DHT22;21755;43.608;1.236;2023-01-28T10:49:15;3.50;99.90
34768;DHT22;21755;43.608;1.236;2023-01-28T10:51:43;3.60;99.90
34768;DHT22;21755;43.608;1.236;2023-01-28T10:54:26;3.60;99.90
34768;DHT22;21755;43.608;1.236;2023-01-28T10:56:53;3.50;99.90
34768;DHT22;21755;43.608;1.236;2023-01-28T11:01:53;3.50;99.90
34768;DHT22;21755;43.608;1.236;2023-01-28T11:04:30;3.50;99.90
34768;DHT22;21755;43.608;1.236;2023-01-28T11:07:02;3.60;99.90
34768;DHT22;21755;43.608;1.236;2023-01-28T11:09:30;3.60;99.90
34768;DHT22;21755;43.608;1.236;2023-01-28T11:11:58;3.60;99.90
34768;DHT22;21755;43.608;1.236;2023-01-28T11:14:26;3.70;99.90
34768;DHT22;21755;43.608;1.236;2023-01-28T11:16:55;3.60;99.90
34768;DHT22;21755;43.608;1.236;2023-01-28T11:19:34;3.60;99.90
34768;DHT22;21755;43.608;1.236;2023-01-28T11:22:01;3.60;99.90
34768;DHT22;21755;43.608;1.236;2023-01-28T11:24:32;3.70;99.90
34768;DHT22;21755;43.608;1.236;2023-01-28T11:27:10;3.60;99.90
34768;DHT22;21755;43.608;1.236;2023-01-28T11:29:39;3.70;99.90
34768;DHT22;21755;43.608;1.236;2023-01-28T11:32:18;3.80;99.90
34768;DHT22;21755;43.608;1.236;2023-01-28T11:34:55;3.80;99.90
34768;DHT22;21755;43.608;1.236;2023-01-28T11:37:27;3.90;99.90
34768;DHT22;21755;43.608;1.236;2023-01-28T11:40:26;3.90;99.90
34768;DHT22;21755;43.608;1.236;2023-01-28T11:42:53;4.00;99.90
34768;DHT22;21755;43.608;1.236;2023-01-28T11:45:46;4.00;99.90
34768;DHT22;21755;43.608;1.236;2023-01-28T11:48:25;4.00;99.90
34768;DHT22;21755;43.608;1.236;2023-01-28T11:53:51;4.00;99.90
34768;DHT22;21755;43.608;1.236;2023-01-28T11:56:32;4.10;99.90
34768;DHT22;21755;43.608;1.236;2023-01-28T12:07:31;4.10;99.90
34768;DHT22;21755;43.608;1.236;2023-01-28T12:13:02;4.10;99.90
34768;DHT22;21755;43.608;1.236;2023-01-28T12:32:51;4.30;99.90
34768;DHT22;21755;43.608;1.236;2023-01-28T12:45:58;4.20;99.90
34768;DHT22;21755;43.608;1.236;2023-01-28T12:49:02;4.20;99.90
34768;DHT22;21755;43.608;1.236;2023-01-28T12:56:53;4.30;99.90
34768;DHT22;21755;43.608;1.236;2023-01-28T13:07:35;4.20;99.90
34768;DHT22;21755;43.608;1.236;2023-01-28T13:10:24;4.20;99.90
34768;DHT22;21755;43.608;1.236;2023-01-28T13:12:53;4.20;99.90
34768;DHT22;21755;43.608;1.236;2023-01-28T13:15:19;4.10;99.90
34768;DHT22;21755;43.608;1.236;2023-01-28T13:17:58;4.10;99.90
34768;DHT22;21755;43.608;1.236;2023-01-28T13:20:45;4.10;99.90
34768;DHT22;21755;43.608;1.236;2023-01-28T13:23:39;4.00;99.90
34768;DHT22;21755;43.608;1.236;2023-01-28T13:26:35;4.10;99.90
34768;DHT22;21755;43.608;1.236;2023-01-28T13:31:56;4.10;99.90
34768;DHT22;21755;43.608;1.236;2023-01-28T13:34:37;4.00;99.90
34768;DHT22;21755;43.608;1.236;2023-01-28T13:37:27;4.00;99.90
34768;DHT22;21755;43.608;1.236;2023-01-28T13:42:34;4.10;99.90
34768;DHT22;21755;43.608;1.236;2023-01-28T13:47:46;4.00;99.90
34768;DHT22;21755;43.608;1.236;2023-01-28T13:50:17;4.00;99.90
34768;DHT22;21755;43.608;1.236;2023-01-28T13:55:21;4.10;99.90
34768;DHT22;21755;43.608;1.236;2023-01-28T14:12:04;4.00;99.90
34768;DHT22;21755;43.608;1.236;2023-01-28T14:15:15;4.00;99.90
34768;DHT22;21755;43.608;1.236;2023-01-28T14:19:52;3.90;99.90
34768;DHT22;21755;43.608;1.236;2023-01-28T14:22:20;3.90;99.90
34768;DHT22;21755;43.608;1.236;2023-01-28T14:24:47;3.90;99.90
34768;DHT22;21755;43.608;1.236;2023-01-28T14:32:53;3.80;99.90
34768;DHT22;21755;43.608;1.236;2023-01-28T14:35:33;3.80;99.90
34768;DHT22;21755;43.608;1.236;2023-01-28T14:38:07;3.80;99.90
34768;DHT22;21755;43.608;1.236;2023-01-28T14:40:37;3.80;99.90
34768;DHT22;21755;43.608;1.236;2023-01-28T14:43:06;3.80;99.90
34768;DHT22;21755;43.608;1.236;2023-01-28T14:48:21;3.80;99.90
34768;DHT22;21755;43.608;1.236;2023-01-28T14:51:04;3.80;99.90
34768;DHT22;21755;43.608;1.236;2023-01-28T14:56:22;3.70;99.90
34768;DHT22;21755;43.608;1.236;2023-01-28T15:01:44;3.70;99.90
34768;DHT22;21755;43.608;1.236;2023-01-28T15:04:32;3.70;99.90
34768;DHT22;21755;43.608;1.236;2023-01-28T15:07:14;3.70;99.90
34768;DHT22;21755;43.608;1.236;2023-01-28T15:09:40;3.70;99.90
34768;DHT22;21755;43.608;1.236;2023-01-28T15:12:07;3.70;99.90
34768;DHT22;21755;43.608;1.236;2023-01-28T15:14:33;3.70;99.90
34768;DHT22;21755;43.608;1.236;2023-01-28T15:17:00;3.70;99.90
34768;DHT22;21755;43.608;1.236;2023-01-28T15:19:32;3.70;99.90
34768;DHT22;21755;43.608;1.236;2023-01-28T15:22:02;3.70;99.90
34768;DHT22;21755;43.608;1.236;2023-01-28T15:24:30;3.70;99.90
34768;DHT22;21755;43.608;1.236;2023-01-28T15:26:56;3.60;99.90
34768;DHT22;21755;43.608;1.236;2023-01-28T15:29:25;3.60;99.90
34768;DHT22;21755;43.608;1.236;2023-01-28T15:31:51;3.60;99.90
34768;DHT22;21755;43.608;1.236;2023-01-28T15:34:19;3.60;99.90
34768;DHT22;21755;43.608;1.236;2023-01-28T15:36:47;3.60;99.90
34768;DHT22;21755;43.608;1.236;2023-01-28T15:41:50;3.60;99.90
34768;DHT22;21755;43.608;1.236;2023-01-28T15:44:21;3.60;99.90
34768;DHT22;21755;43.608;1.236;2023-01-28T15:46:57;3.60;99.90
34768;DHT22;21755;43.608;1.236;2023-01-28T15:49:27;3.60;99.90
34768;DHT22;21755;43.608;1.236;2023-01-28T15:51:55;3.60;99.90
34768;DHT22;21755;43.608;1.236;2023-01-28T15:54:21;3.60;99.90
34768;DHT22;21755;43.608;1.236;2023-01-28T15:56:48;3.60;99.90
34768;DHT22;21755;43.608;1.236;2023-01-28T15:59:27;3.60;99.90
34768;DHT22;21755;43.608;1.236;2023-01-28T16:04:40;3.50;99.90
34768;DHT22;21755;43.608;1.236;2023-01-28T16:07:06;3.50;99.90
34768;DHT22;21755;43.608;1.236;2023-01-28T16:09:33;3.50;99.90
34768;DHT22;21755;43.608;1.236;2023-01-28T16:12:11;3.50;99.90
34768;DHT22;21755;43.608;1.236;2023-01-28T16:14:49;3.50;99.90
34768;DHT22;21755;43.608;1.236;2023-01-28T16:17:18;3.50;99.90
34768;DHT22;21755;43.608;1.236;2023-01-28T16:19:54;3.40;99.90
34768;DHT22;21755;43.608;1.236;2023-01-28T16:22:35;3.50;99.90
34768;DHT22;21755;43.608;1.236;2023-01-28T16:25:23;3.40;99.90
34768;DHT22;21755;43.608;1.236;2023-01-28T16:27:49;3.40;99.90
34768;DHT22;21755;43.608;1.236;2023-01-28T16:30:15;3.40;99.90
34768;DHT22;21755;43.608;1.236;2023-01-28T16:32:41;3.40;99.90
34768;DHT22;21755;43.608;1.236;2023-01-28T16:35:19;3.40;99.90
34768;DHT22;21755;43.608;1.236;2023-01-28T16:37:47;3.40;99.90
34768;DHT22;21755;43.608;1.236;2023-01-28T16:40:15;3.40;99.90
34768;DHT22;21755;43.608;1.236;2023-01-28T16:42:42;3.40;99.90
34768;DHT22;21755;43.608;1.236;2023-01-28T16:45:21;3.40;99.90
34768;DHT22;21755;43.608;1.236;2023-01-28T16:47:48;3.40;99.90
34768;DHT22;21755;43.608;1.236;2023-01-28T16:50:17;3.40;99.90
34768;DHT22;21755;43.608;1.236;2023-01-28T16:52:47;3.40;99.90
34768;DHT22;21755;43.608;1.236;2023-01-28T16:55:19;3.40;99.90
34768;DHT22;21755;43.608;1.236;2023-01-28T16:57:46;3.40;99.90
34768;DHT22;21755;43.608;1.236;2023-01-28T17:00:17;3.30;99.90
34768;DHT22;21755;43.608;1.236;2023-01-28T17:02:44;3.40;99.90
34768;DHT22;21755;43.608;1.236;2023-01-28T17:05:10;3.40;99.90
34768;DHT22;21755;43.608;1.236;2023-01-28T17:07:36;3.40;99.90
34768;DHT22;21755;43.608;1.236;2023-01-28T17:10:03;3.40;99.90
34768;DHT22;21755;43.608;1.236;2023-01-28T17:12:29;3.40;99.90
34768;DHT22;21755;43.608;1.236;2023-01-28T17:14:55;3.40;99.90
34768;DHT22;21755;43.608;1.236;2023-01-28T17:17:21;3.30;99.90
34768;DHT22;21755;43.608;1.236;2023-01-28T17:19:47;3.30;99.90
34768;DHT22;21755;43.608;1.236;2023-01-28T17:22:13;3.30;99.90
34768;DHT22;21755;43.608;1.236;2023-01-28T17:24:38;3.30;99.90
34768;DHT22;21755;43.608;1.236;2023-01-28T17:27:04;3.30;99.90
34768;DHT22;21755;43.608;1.236;2023-01-28T17:29:31;3.30;99.90
34768;DHT22;21755;43.608;1.236;2023-01-28T17:31:57;3.30;99.90
34768;DHT22;21755;43.608;1.236;2023-01-28T17:34:24;3.30;99.90
34768;DHT22;21755;43.608;1.236;2023-01-28T17:36:50;3.30;99.90
34768;DHT22;21755;43.608;1.236;2023-01-28T17:39:16;3.30;99.90
34768;DHT22;21755;43.608;1.236;2023-01-28T17:41:41;3.30;99.90
34768;DHT22;21755;43.608;1.236;2023-01-28T17:44:10;3.30;99.90
34768;DHT22;21755;43.608;1.236;2023-01-28T17:46:36;3.30;99.90
34768;DHT22;21755;43.608;1.236;2023-01-28T17:49:02;3.20;99.90
34768;DHT22;21755;43.608;1.236;2023-01-28T17:51:28;3.20;99.90
34768;DHT22;21755;43.608;1.236;2023-01-28T17:53:54;3.20;99.90
34768;DHT22;21755;43.608;1.236;2023-01-28T17:56:23;3.20;99.90
34768;DHT22;21755;43.608;1.236;2023-01-28T17:58:51;3.20;99.90
34768;DHT22;21755;43.608;1.236;2023-01-28T18:01:18;3.20;99.90
34768;DHT22;21755;43.608;1.236;2023-01-28T18:03:44;3.20;99.90
34768;DHT22;21755;43.608;1.236;2023-01-28T18:06:10;3.20;99.90
34768;DHT22;21755;43.608;1.236;2023-01-28T18:08:36;3.20;99.90
34768;DHT22;21755;43.608;1.236;2023-01-28T18:11:05;3.20;99.90
34768;DHT22;21755;43.608;1.236;2023-01-28T18:13:31;3.20;99.90
34768;DHT22;21755;43.608;1.236;2023-01-28T18:15:59;3.20;99.90
34768;DHT22;21755;43.608;1.236;2023-01-28T18:18:25;3.20;99.90
34768;DHT22;21755;43.608;1.236;2023-01-28T18:21:01;3.20;99.90
34768;DHT22;21755;43.608;1.236;2023-01-28T18:23:28;3.20;99.90
34768;DHT22;21755;43.608;1.236;2023-01-28T18:25:58;3.20;99.90